Time;durP1;ratioP1;P1;durP2;ratioP2;P2;SDS_P1;SDS_P2;PMS_P1;PMS_P2;Temp;Humidity;BMP_temperature;BMP_pressure;BME280_temperature;BME280_humidity;BME280_pressure;Samples;Min_cycle;Max_cycle;Signal;HPM_P1;HPM_P2
2023/08/09 00:00:43;;;;;;;1999.90;999.90;;;10.80;99.90;;;;;;5084402;28;20088;-71
2023/08/09 00:03:09;;;;;;;1999.90;999.90;;;10.80;99.90;;;;;;5079935;28;20698;-71
2023/08/09 00:05:35;;;;;;;1999.90;999.90;;;10.80;99.90;;;;;;5094171;28;20052;-71
2023/08/09 00:08:00;;;;;;;1999.90;999.90;;;10.70;99.90;;;;;;5083547;28;20044;-71
2023/08/09 00:10:26;;;;;;;1999.90;999.90;;;10.70;99.90;;;;;;5079990;28;20044;-71
2023/08/09 00:12:52;;;;;;;1999.90;999.90;;;10.70;99.90;;;;;;5074790;28;20040;-71
2023/08/09 00:15:18;;;;;;;1999.90;999.90;;;10.70;99.90;;;;;;5081857;28;20595;-71
2023/08/09 00:17:44;;;;;;;1999.90;999.90;;;10.60;99.90;;;;;;5062683;28;20047;-70
2023/08/09 00:20:11;;;;;;;1999.90;999.90;;;10.60;99.90;;;;;;5091291;28;20044;-71
2023/08/09 00:22:38;;;;;;;1999.90;999.90;;;10.60;99.90;;;;;;5079610;28;20130;-71
2023/08/09 00:25:05;;;;;;;1999.90;999.90;;;10.50;99.90;;;;;;5089414;28;20043;-70
2023/08/09 00:27:31;;;;;;;1999.90;999.90;;;10.50;99.90;;;;;;5089223;28;20040;-71
2023/08/09 00:29:57;;;;;;;1999.90;999.90;;;10.50;99.90;;;;;;5090006;28;20127;-71
2023/08/09 00:32:23;;;;;;;1999.90;999.90;;;10.50;99.90;;;;;;5087535;28;20138;-71
2023/08/09 00:34:49;;;;;;;1999.90;999.90;;;10.50;99.90;;;;;;5086835;28;20067;-71
2023/08/09 00:37:14;;;;;;;1999.90;999.90;;;10.40;99.90;;;;;;5103845;28;20484;-70
2023/08/09 00:39:40;;;;;;;1999.90;999.90;;;10.40;99.90;;;;;;5084993;28;20046;-70
2023/08/09 00:42:06;;;;;;;1999.90;999.90;;;10.40;99.90;;;;;;5102727;28;20039;-70
2023/08/09 00:44:31;;;;;;;1999.90;999.90;;;10.40;99.90;;;;;;5084277;28;20067;-71
2023/08/09 00:46:57;;;;;;;1999.90;999.90;;;10.40;99.90;;;;;;5086036;28;20040;-71
2023/08/09 00:49:24;;;;;;;1999.90;999.90;;;10.40;99.90;;;;;;5101984;28;20043;-71
2023/08/09 00:51:50;;;;;;;1999.90;999.90;;;10.40;99.90;;;;;;5087714;28;20817;-71
2023/08/09 00:54:17;;;;;;;1999.90;999.90;;;10.40;99.90;;;;;;5080101;28;20040;-71
2023/08/09 00:56:43;;;;;;;1999.90;999.90;;;10.30;99.90;;;;;;5080543;28;20052;-70
2023/08/09 00:59:09;;;;;;;1999.90;999.90;;;10.30;99.90;;;;;;5081142;28;20124;-71
2023/08/09 01:01:34;;;;;;;1999.90;999.90;;;10.30;99.90;;;;;;5086397;28;20141;-70
2023/08/09 01:04:01;;;;;;;1999.90;999.90;;;10.30;99.90;;;;;;5084392;28;20056;-70
2023/08/09 01:06:46;;;;;;;1999.90;999.90;;;10.30;99.90;;;;;;5080828;28;20506;-70
2023/08/09 01:09:35;;;;;;;1999.90;999.90;;;10.30;99.90;;;;;;5083351;28;20063;-70
2023/08/09 01:12:19;;;;;;;1999.90;999.90;;;10.30;99.90;;;;;;5097363;28;20476;-71
2023/08/09 01:14:50;;;;;;;1999.90;999.90;;;10.30;99.90;;;;;;5085547;28;20068;-71
2023/08/09 01:17:16;;;;;;;1999.90;999.90;;;10.20;99.90;;;;;;5081520;28;20522;-71
2023/08/09 01:19:48;;;;;;;1999.90;999.90;;;10.20;99.90;;;;;;5101462;28;20052;-70
2023/08/09 01:22:21;;;;;;;1999.90;999.90;;;10.20;99.90;;;;;;5086140;28;20048;-71
2023/08/09 01:24:49;;;;;;;1999.90;999.90;;;10.20;99.90;;;;;;5076451;28;20059;-70
2023/08/09 01:27:15;;;;;;;1999.90;999.90;;;10.20;99.90;;;;;;5086629;28;20427;-70
2023/08/09 01:29:41;;;;;;;1999.90;999.90;;;10.20;99.90;;;;;;5103400;28;20119;-70
2023/08/09 01:32:07;;;;;;;1999.90;999.90;;;10.20;99.90;;;;;;5078443;28;20059;-71
2023/08/09 01:34:35;;;;;;;1999.90;999.90;;;10.20;99.90;;;;;;5081374;28;20389;-71
2023/08/09 01:37:13;;;;;;;1999.90;999.90;;;10.10;99.90;;;;;;5076479;28;20046;-71
2023/08/09 01:39:40;;;;;;;1999.90;999.90;;;10.10;99.90;;;;;;5077548;28;20119;-71
2023/08/09 01:42:07;;;;;;;1999.90;999.90;;;10.10;99.90;;;;;;5086558;28;20043;-71
2023/08/09 01:44:33;;;;;;;1999.90;999.90;;;10.10;99.90;;;;;;5063245;28;20044;-71
2023/08/09 01:47:00;;;;;;;1999.90;999.90;;;10.10;99.90;;;;;;5085878;28;20040;-71
2023/08/09 01:49:26;;;;;;;1999.90;999.90;;;10.00;99.90;;;;;;5105226;27;20044;-71
2023/08/09 01:51:52;;;;;;;1999.90;999.90;;;10.00;99.90;;;;;;5085655;28;20475;-70
2023/08/09 01:54:19;;;;;;;1999.90;999.90;;;10.00;99.90;;;;;;5081657;28;20032;-70
2023/08/09 01:56:45;;;;;;;1999.90;999.90;;;10.00;99.90;;;;;;5075792;28;20051;-71
2023/08/09 01:59:11;;;;;;;1999.90;999.90;;;10.00;99.90;;;;;;5085496;28;20051;-70
2023/08/09 02:01:36;;;;;;;1999.90;999.90;;;9.90;99.90;;;;;;5068846;28;20411;-71
2023/08/09 02:04:03;;;;;;;1999.90;999.90;;;9.90;99.90;;;;;;5086060;28;20385;-71
2023/08/09 02:06:32;;;;;;;1999.90;999.90;;;9.90;99.90;;;;;;5084455;28;20052;-70
2023/08/09 02:08:59;;;;;;;1999.90;999.90;;;9.90;99.90;;;;;;5069139;28;20054;-71
2023/08/09 02:11:25;;;;;;;1999.90;999.90;;;9.90;99.90;;;;;;5084669;28;20043;-71
2023/08/09 02:13:51;;;;;;;1999.90;999.90;;;9.80;99.90;;;;;;5075198;28;20043;-71
2023/08/09 02:16:18;;;;;;;1999.90;999.90;;;9.80;99.90;;;;;;5083389;28;20036;-71
2023/08/09 02:18:44;;;;;;;1999.90;999.90;;;9.70;99.90;;;;;;5069294;28;20506;-71
2023/08/09 02:21:10;;;;;;;1999.90;999.90;;;9.70;99.90;;;;;;5097793;28;20118;-71
2023/08/09 02:23:37;;;;;;;1999.90;999.90;;;9.70;99.90;;;;;;5101386;28;20047;-71
2023/08/09 02:26:03;;;;;;;1999.90;999.90;;;9.70;99.90;;;;;;5078863;28;20051;-71
2023/08/09 02:28:29;;;;;;;1999.90;999.90;;;9.60;99.90;;;;;;5066294;28;20047;-71
2023/08/09 02:30:56;;;;;;;1999.90;999.90;;;9.60;99.90;;;;;;5082074;28;20047;-71
2023/08/09 02:33:22;;;;;;;1999.90;999.90;;;9.60;99.90;;;;;;5077674;28;20140;-70
2023/08/09 02:35:55;;;;;;;1999.90;999.90;;;9.60;99.90;;;;;;5068853;28;20044;-70
2023/08/09 02:38:22;;;;;;;1999.90;999.90;;;9.50;99.90;;;;;;5092116;28;20055;-71
2023/08/09 02:40:49;;;;;;;1999.90;999.90;;;9.50;99.90;;;;;;5088271;28;20444;-70
2023/08/09 02:43:16;;;;;;;1999.90;999.90;;;9.50;99.90;;;;;;5085611;28;20051;-70
2023/08/09 02:45:42;;;;;;;1999.90;999.90;;;9.50;99.90;;;;;;5072396;28;20044;-71
2023/08/09 02:48:08;;;;;;;1999.90;999.90;;;9.50;99.90;;;;;;5079599;28;20048;-71
2023/08/09 02:50:34;;;;;;;1999.90;999.90;;;9.50;99.90;;;;;;5078761;28;20043;-71
2023/08/09 02:53:01;;;;;;;1999.90;999.90;;;9.40;99.90;;;;;;5090206;28;20621;-71
2023/08/09 02:55:27;;;;;;;1999.90;999.90;;;9.40;99.90;;;;;;5081734;28;20088;-70
2023/08/09 02:57:53;;;;;;;1999.90;999.90;;;9.40;99.90;;;;;;5068247;28;20049;-71
2023/08/09 03:00:19;;;;;;;1999.90;999.90;;;9.30;99.90;;;;;;5065526;28;20391;-70
2023/08/09 03:02:45;;;;;;;1999.90;999.90;;;9.40;99.90;;;;;;5099609;28;20516;-70
2023/08/09 03:05:11;;;;;;;1999.90;999.90;;;9.30;99.90;;;;;;5092245;28;20056;-71
2023/08/09 03:07:37;;;;;;;1999.90;999.90;;;9.30;99.90;;;;;;5063097;28;20100;-71
2023/08/09 03:10:03;;;;;;;1999.90;999.90;;;9.30;99.90;;;;;;5062356;28;20041;-70
2023/08/09 03:12:30;;;;;;;1999.90;999.90;;;9.30;99.90;;;;;;5079719;28;20039;-71
2023/08/09 03:14:55;;;;;;;1999.90;999.90;;;9.20;99.90;;;;;;5086066;28;20147;-71
2023/08/09 03:17:21;;;;;;;1999.90;999.90;;;9.20;99.90;;;;;;5101421;27;20172;-71
2023/08/09 03:19:48;;;;;;;1999.90;999.90;;;9.20;99.90;;;;;;5070305;28;20048;-71
2023/08/09 03:22:14;;;;;;;1999.90;999.90;;;9.20;99.90;;;;;;5083693;28;20524;-71
2023/08/09 03:24:40;;;;;;;1999.90;999.90;;;9.10;99.90;;;;;;5056691;28;20044;-71
2023/08/09 03:27:05;;;;;;;1999.90;999.90;;;9.10;99.90;;;;;;5101283;27;20440;-71
2023/08/09 03:29:31;;;;;;;1999.90;999.90;;;9.10;99.90;;;;;;5085570;28;20567;-71
2023/08/09 03:31:56;;;;;;;1999.90;999.90;;;9.00;99.90;;;;;;5065684;28;20085;-71
2023/08/09 03:34:22;;;;;;;1999.90;999.90;;;9.00;99.90;;;;;;5088539;28;20032;-71
2023/08/09 03:36:48;;;;;;;1999.90;999.90;;;9.00;99.90;;;;;;5066787;28;20055;-70
2023/08/09 03:39:13;;;;;;;1999.90;999.90;;;9.00;99.90;;;;;;5066795;28;20080;-71
2023/08/09 03:41:40;;;;;;;1999.90;999.90;;;8.90;99.90;;;;;;5083578;28;20403;-71
2023/08/09 03:44:06;;;;;;;1999.90;999.90;;;8.90;99.90;;;;;;5069277;28;20040;-71
2023/08/09 03:46:32;;;;;;;1999.90;999.90;;;8.90;99.90;;;;;;5083539;28;20492;-71
2023/08/09 03:48:58;;;;;;;1999.90;999.90;;;8.90;99.90;;;;;;5088305;28;20028;-71
2023/08/09 03:51:24;;;;;;;1999.90;999.90;;;8.90;99.90;;;;;;5080280;28;20363;-71
2023/08/09 03:53:49;;;;;;;1999.90;999.90;;;8.90;99.90;;;;;;5073275;28;20032;-71
2023/08/09 03:56:15;;;;;;;1999.90;999.90;;;8.90;99.90;;;;;;5071710;28;20044;-71
2023/08/09 03:58:41;;;;;;;1999.90;999.90;;;8.90;99.90;;;;;;5070677;28;20109;-71
2023/08/09 04:01:07;;;;;;;1999.90;999.90;;;8.90;99.90;;;;;;5072073;28;20105;-71
2023/08/09 04:03:33;;;;;;;1999.90;999.90;;;8.90;99.90;;;;;;5084877;28;20055;-71
2023/08/09 04:05:59;;;;;;;1999.90;999.90;;;8.90;99.90;;;;;;5065285;28;20052;-71
2023/08/09 04:08:26;;;;;;;1999.90;999.90;;;8.80;99.90;;;;;;5098177;28;20408;-71
2023/08/09 04:10:54;;;;;;;1999.90;999.90;;;8.80;99.90;;;;;;5088690;28;20126;-71
2023/08/09 04:13:20;;;;;;;1999.90;999.90;;;8.90;99.90;;;;;;5080729;28;20029;-71
2023/08/09 04:15:46;;;;;;;1999.90;999.90;;;8.90;99.90;;;;;;5083744;28;20131;-71
2023/08/09 04:18:14;;;;;;;1999.90;999.90;;;8.90;99.90;;;;;;5070713;28;20127;-71
2023/08/09 04:20:40;;;;;;;1999.90;999.90;;;8.90;99.90;;;;;;5083827;28;20381;-71
2023/08/09 04:23:06;;;;;;;1999.90;999.90;;;8.90;99.90;;;;;;5086393;28;20040;-71
2023/08/09 04:25:32;;;;;;;1999.90;999.90;;;8.90;99.90;;;;;;5068376;28;20074;-71
2023/08/09 04:27:59;;;;;;;1999.90;999.90;;;8.90;99.90;;;;;;5085782;28;20579;-71
2023/08/09 04:30:24;;;;;;;1999.90;999.90;;;8.90;99.90;;;;;;5087568;28;20446;-71
2023/08/09 04:32:52;;;;;;;1999.90;999.90;;;8.90;99.90;;;;;;5070507;28;20036;-71
2023/08/09 04:35:18;;;;;;;1999.90;999.90;;;9.00;99.90;;;;;;5087580;28;20036;-71
2023/08/09 04:37:44;;;;;;;1999.90;999.90;;;8.90;99.90;;;;;;5088291;28;20042;-71
2023/08/09 04:40:10;;;;;;;1999.90;999.90;;;9.00;99.90;;;;;;5079368;28;20037;-71
2023/08/09 04:42:47;;;;;;;1999.90;999.90;;;9.00;99.90;;;;;;5087958;28;20738;-71
2023/08/09 04:45:14;;;;;;;1999.90;999.90;;;9.10;99.90;;;;;;5079909;28;20040;-71
2023/08/09 04:47:40;;;;;;;1999.90;999.90;;;9.10;99.90;;;;;;5098303;28;20046;-71
2023/08/09 04:50:07;;;;;;;1999.90;999.90;;;9.20;99.90;;;;;;5077410;28;20044;-70
2023/08/09 04:52:35;;;;;;;1999.90;999.90;;;9.20;99.90;;;;;;5084230;28;20055;-70
2023/08/09 04:55:01;;;;;;;1999.90;999.90;;;9.20;99.90;;;;;;5083093;28;20036;-71
2023/08/09 04:57:28;;;;;;;1999.90;999.90;;;9.20;99.90;;;;;;5078209;28;20040;-71
2023/08/09 04:59:53;;;;;;;1999.90;999.90;;;9.30;99.90;;;;;;5086077;28;20048;-70
2023/08/09 05:02:19;;;;;;;1999.90;999.90;;;9.40;99.90;;;;;;5096761;28;20117;-71
2023/08/09 05:04:44;;;;;;;1999.90;999.90;;;9.50;99.90;;;;;;5096676;28;20143;-71
2023/08/09 05:07:10;;;;;;;1999.90;999.90;;;9.50;99.90;;;;;;5070104;28;20059;-70
2023/08/09 05:09:36;;;;;;;1999.90;999.90;;;9.60;99.90;;;;;;5086515;28;20036;-71
2023/08/09 05:12:01;;;;;;;1999.90;999.90;;;9.70;99.90;;;;;;5058466;28;20041;-71
2023/08/09 05:14:27;;;;;;;1999.90;999.90;;;9.80;99.90;;;;;;5082202;28;20529;-71
2023/08/09 05:16:53;;;;;;;1999.90;999.90;;;9.90;99.90;;;;;;5087633;28;20044;-71
2023/08/09 05:19:20;;;;;;;1999.90;999.90;;;10.00;99.90;;;;;;5069015;28;20048;-71
2023/08/09 05:21:46;;;;;;;1999.90;999.90;;;10.10;99.90;;;;;;5083101;28;20043;-71
2023/08/09 05:24:12;;;;;;;1999.90;999.90;;;10.20;99.90;;;;;;5091143;28;20059;-71
2023/08/09 05:26:38;;;;;;;1999.90;999.90;;;10.30;99.90;;;;;;5073870;28;20050;-71
2023/08/09 05:29:04;;;;;;;1999.90;999.90;;;10.40;99.90;;;;;;5097403;28;20178;-71
2023/08/09 05:31:29;;;;;;;1999.90;999.90;;;10.60;99.90;;;;;;5088769;28;20039;-71
2023/08/09 05:33:56;;;;;;;1999.90;999.90;;;10.70;99.90;;;;;;5079626;28;20072;-71
2023/08/09 05:36:22;;;;;;;1999.90;999.90;;;10.80;99.90;;;;;;5093985;28;20040;-71
2023/08/09 05:38:48;;;;;;;1999.90;999.90;;;11.00;99.90;;;;;;5078122;28;20292;-71
2023/08/09 05:41:14;;;;;;;1999.90;999.90;;;11.20;99.90;;;;;;5078170;28;20573;-71
2023/08/09 05:43:39;;;;;;;1999.90;999.90;;;11.30;99.90;;;;;;5098378;28;20169;-71
2023/08/09 05:46:05;;;;;;;1999.90;999.90;;;11.50;99.90;;;;;;5081628;28;20067;-71
2023/08/09 05:48:31;;;;;;;1999.90;999.90;;;11.70;99.90;;;;;;5082639;28;20039;-71
2023/08/09 05:50:56;;;;;;;1999.90;999.90;;;11.80;99.90;;;;;;5100992;28;20039;-71
2023/08/09 05:53:22;;;;;;;1999.90;999.90;;;12.00;99.90;;;;;;5064481;28;20031;-71
2023/08/09 05:55:47;;;;;;;1999.90;999.90;;;12.20;99.90;;;;;;5082619;28;20044;-72
2023/08/09 05:58:14;;;;;;;1999.90;999.90;;;12.40;99.90;;;;;;5062712;28;20052;-71
2023/08/09 06:00:40;;;;;;;1999.90;999.90;;;12.50;99.90;;;;;;5086940;28;20035;-71
2023/08/09 06:03:06;;;;;;;1999.90;999.90;;;12.60;99.90;;;;;;5083125;28;20035;-71
2023/08/09 06:05:32;;;;;;;1999.90;999.90;;;12.80;99.90;;;;;;5085321;28;20064;-71
2023/08/09 06:07:58;;;;;;;1999.90;999.90;;;12.90;99.90;;;;;;5094652;28;20039;-71
2023/08/09 06:10:25;;;;;;;1999.90;999.90;;;13.00;99.90;;;;;;5087365;28;20042;-71
2023/08/09 06:12:51;;;;;;;1999.90;999.90;;;13.10;99.90;;;;;;5067685;28;20090;-71
2023/08/09 06:15:17;;;;;;;1999.90;999.90;;;13.20;99.90;;;;;;5088136;28;20484;-71
2023/08/09 06:17:43;;;;;;;1999.90;999.90;;;13.30;99.90;;;;;;5079031;28;20494;-71
2023/08/09 06:20:09;;;;;;;1999.90;999.90;;;13.40;99.90;;;;;;5065477;28;20054;-71
2023/08/09 06:22:35;;;;;;;1999.90;999.90;;;13.50;99.90;;;;;;5086647;28;20054;-71
2023/08/09 06:25:00;;;;;;;1999.90;999.90;;;13.60;99.90;;;;;;5085615;28;20036;-71
2023/08/09 06:27:26;;;;;;;1999.90;999.90;;;13.80;99.90;;;;;;5083232;28;20480;-71
2023/08/09 06:29:51;;;;;;;1999.90;999.90;;;13.90;99.90;;;;;;5079059;28;20044;-71
2023/08/09 06:32:17;;;;;;;1999.90;999.90;;;14.30;99.90;;;;;;5084763;28;20131;-71
2023/08/09 06:34:43;;;;;;;1999.90;999.90;;;15.40;99.90;;;;;;5100737;28;20407;-71
2023/08/09 06:37:09;;;;;;;1999.90;999.90;;;15.80;99.90;;;;;;5066627;28;20044;-71
2023/08/09 06:39:34;;;;;;;1999.90;999.90;;;16.00;99.90;;;;;;5082023;28;20043;-72
2023/08/09 06:42:01;;;;;;;1999.90;999.90;;;16.20;99.90;;;;;;5082077;28;20071;-72
2023/08/09 06:44:26;;;;;;;1999.90;999.90;;;16.00;99.90;;;;;;5078381;28;20502;-71
2023/08/09 06:46:53;;;;;;;1999.90;999.90;;;15.70;99.90;;;;;;5083371;28;20049;-71
2023/08/09 06:49:21;;;;;;;1999.90;999.90;;;15.60;99.90;;;;;;5086996;28;20142;-71
2023/08/09 06:51:47;;;;;;;1999.90;999.90;;;15.50;99.90;;;;;;5069607;28;20384;-71
2023/08/09 06:54:13;;;;;;;1999.90;999.90;;;15.50;99.90;;;;;;5085225;28;20037;-72
2023/08/09 06:56:38;;;;;;;1999.90;999.90;;;15.70;99.90;;;;;;5084896;28;20138;-72
2023/08/09 06:59:05;;;;;;;1999.90;999.90;;;16.60;99.90;;;;;;5085493;28;20164;-72
2023/08/09 07:01:31;;;;;;;1999.90;999.90;;;17.90;99.90;;;;;;5068309;28;20036;-72
2023/08/09 07:03:57;;;;;;;1999.90;999.90;;;18.90;99.90;;;;;;5070763;28;20045;-72
2023/08/09 07:06:23;;;;;;;1999.90;999.90;;;19.70;99.90;;;;;;5086678;28;20101;-72
2023/08/09 07:08:53;;;;;;;1999.90;999.90;;;20.40;99.90;;;;;;5080462;28;20448;-72
2023/08/09 07:11:22;;;;;;;1999.90;999.90;;;20.90;99.90;;;;;;5076933;28;20039;-72
2023/08/09 07:13:47;;;;;;;1999.90;999.90;;;21.50;99.90;;;;;;5083707;28;20048;-72
2023/08/09 07:16:13;;;;;;;1999.90;999.90;;;22.00;99.90;;;;;;5068497;28;20040;-72
2023/08/09 07:18:38;;;;;;;1999.90;999.90;;;22.30;99.90;;;;;;5092774;28;20046;-72
2023/08/09 07:21:04;;;;;;;1999.90;999.90;;;22.40;99.90;;;;;;5069823;28;20048;-72
2023/08/09 07:23:31;;;;;;;1999.90;999.90;;;21.40;99.90;;;;;;5078588;28;20040;-72
2023/08/09 07:25:57;;;;;;;1999.90;999.90;;;20.40;99.90;;;;;;5077894;28;20051;-72
2023/08/09 07:28:22;;;;;;;1999.90;999.90;;;19.50;99.90;;;;;;5076456;28;20043;-72
2023/08/09 07:30:51;;;;;;;1999.90;999.90;;;19.00;99.90;;;;;;5099087;28;20135;-71
2023/08/09 07:33:17;;;;;;;1999.90;999.90;;;18.60;99.90;;;;;;5080431;28;20039;-71
2023/08/09 07:35:42;;;;;;;1999.90;999.90;;;18.40;99.90;;;;;;5086552;28;20066;-71
2023/08/09 07:38:08;;;;;;;1999.90;999.90;;;18.20;99.90;;;;;;5080786;28;20036;-72
2023/08/09 07:40:34;;;;;;;1999.90;999.90;;;18.10;99.90;;;;;;5077931;28;20564;-71
2023/08/09 07:43:01;;;;;;;1999.90;999.90;;;17.90;99.90;;;;;;5068260;28;20043;-72
2023/08/09 07:45:28;;;;;;;1999.90;999.90;;;17.90;99.90;;;;;;5075223;28;20048;-71
2023/08/09 07:47:54;;;;;;;1999.90;999.90;;;17.80;99.90;;;;;;5079882;28;20124;-72
2023/08/09 07:50:20;;;;;;;1999.90;999.90;;;17.80;99.90;;;;;;5078950;28;20504;-72
2023/08/09 07:52:47;;;;;;;1999.90;999.90;;;17.80;99.90;;;;;;5084997;28;20043;-71
2023/08/09 07:55:14;;;;;;;1999.90;999.90;;;17.80;99.90;;;;;;5074605;28;20092;-71
2023/08/09 07:57:40;;;;;;;1999.90;999.90;;;17.80;99.90;;;;;;5070287;28;20439;-71
2023/08/09 08:00:12;;;;;;;1999.90;999.90;;;17.80;99.90;;;;;;5098145;28;20047;-71
2023/08/09 08:02:38;;;;;;;1999.90;999.90;;;17.90;99.90;;;;;;5091976;28;20173;-71
2023/08/09 08:05:05;;;;;;;1999.90;999.90;;;17.90;99.90;;;;;;5084937;28;20112;-71
2023/08/09 08:07:30;;;;;;;1999.90;999.90;;;17.90;99.90;;;;;;5080955;28;20040;-71
2023/08/09 08:09:56;;;;;;;1999.90;999.90;;;17.90;99.90;;;;;;5060640;28;20113;-71
2023/08/09 08:12:22;;;;;;;1999.90;999.90;;;18.00;99.90;;;;;;5069044;28;20051;-71
2023/08/09 08:14:48;;;;;;;1999.90;999.90;;;18.00;99.90;;;;;;5069749;28;20048;-71
2023/08/09 08:17:13;;;;;;;1999.90;999.90;;;18.10;99.90;;;;;;5085146;28;20125;-71
2023/08/09 08:19:39;;;;;;;1999.90;999.90;;;18.10;99.90;;;;;;5098504;28;20040;-72
2023/08/09 08:22:05;;;;;;;1999.90;999.90;;;18.10;99.90;;;;;;5085927;28;20509;-71
2023/08/09 08:24:31;;;;;;;1999.90;999.90;;;18.10;99.90;;;;;;5085286;28;20050;-71
2023/08/09 08:26:57;;;;;;;1999.90;999.90;;;18.20;99.90;;;;;;5079667;28;20036;-72
2023/08/09 08:29:23;;;;;;;1999.90;999.90;;;18.30;99.90;;;;;;5108234;28;20170;-71
2023/08/09 08:31:50;;;;;;;1999.90;999.90;;;18.50;99.90;;;;;;5080321;28;20047;-71
2023/08/09 08:34:17;;;;;;;143.00;136.65;;;18.60;99.90;;;;;;5079772;28;20409;-72
2023/08/09 08:36:44;;;;;;;1999.90;999.90;;;18.60;99.90;;;;;;5094303;28;20379;-71
2023/08/09 08:39:14;;;;;;;282.20;269.95;;;18.50;99.90;;;;;;5081683;28;20055;-71
2023/08/09 08:41:41;;;;;;;1999.90;999.90;;;18.60;99.90;;;;;;5079272;28;20043;-71
2023/08/09 08:44:07;;;;;;;1999.90;999.90;;;18.60;99.90;;;;;;5085080;28;20510;-72
2023/08/09 08:46:34;;;;;;;1999.90;999.90;;;18.70;99.90;;;;;;5083640;28;20531;-71
2023/08/09 08:49:03;;;;;;;224.10;214.52;;;19.00;99.90;;;;;;5082627;28;20048;-71
2023/08/09 08:51:30;;;;;;;327.45;300.50;;;19.30;99.90;;;;;;5087786;28;20043;-72
2023/08/09 08:53:56;;;;;;;224.93;215.35;;;19.40;99.90;;;;;;5086447;28;20048;-71
2023/08/09 08:56:22;;;;;;;209.52;200.65;;;19.70;99.90;;;;;;5088925;28;20115;-71
2023/08/09 08:58:48;;;;;;;213.88;204.82;;;20.10;99.90;;;;;;5094034;28;20508;-72
2023/08/09 09:01:15;;;;;;;220.40;210.95;;;20.70;99.90;;;;;;5081231;28;20036;-72
2023/08/09 09:03:40;;;;;;;232.93;222.75;;;21.10;99.90;;;;;;5084750;28;20684;-73
2023/08/09 09:06:06;;;;;;;245.07;234.40;;;21.40;99.90;;;;;;5087666;28;20055;-71
2023/08/09 09:08:40;;;;;;;274.10;262.05;;;21.50;99.90;;;;;;5082991;28;20047;-72
2023/08/09 09:11:21;;;;;;;225.25;215.57;;;21.40;99.90;;;;;;5099147;28;20048;-71
2023/08/09 09:13:49;;;;;;;225.20;215.40;;;21.50;99.90;;;;;;5079910;28;20051;-72
2023/08/09 09:16:15;;;;;;;195.15;186.70;;;21.30;99.90;;;;;;5089030;28;20047;-72
2023/08/09 09:18:42;;;;;;;207.60;198.65;;;21.60;99.60;;;;;;5082756;28;20537;-72
2023/08/09 09:21:10;;;;;;;173.80;166.27;;;22.10;99.90;;;;;;5061835;28;20052;-72
2023/08/09 09:23:37;;;;;;;269.25;257.50;;;21.90;99.50;;;;;;5082966;28;20058;-71
2023/08/09 09:26:04;;;;;;;208.02;199.25;;;21.40;99.60;;;;;;5087454;28;20408;-71
2023/08/09 09:28:39;;;;;;;307.92;293.80;;;20.90;99.90;;;;;;5066969;28;20073;-71
2023/08/09 09:31:06;;;;;;;215.93;206.57;;;21.20;99.90;;;;;;5087634;28;20040;-71
2023/08/09 09:33:33;;;;;;;174.98;167.50;;;21.70;98.70;;;;;;5084632;28;20490;-71
2023/08/09 09:35:59;;;;;;;199.23;190.88;;;22.00;98.50;;;;;;5089663;28;20074;-71
2023/08/09 09:38:25;;;;;;;238.45;228.35;;;22.40;98.40;;;;;;5087521;28;20071;-72
2023/08/09 09:40:52;;;;;;;275.75;263.10;;;22.60;98.30;;;;;;5066710;28;20044;-73
2023/08/09 09:43:17;;;;;;;222.93;213.55;;;22.30;98.00;;;;;;5086902;28;20101;-72
2023/08/09 09:45:44;;;;;;;213.93;204.88;;;22.00;97.00;;;;;;5078336;28;20036;-72
2023/08/09 09:48:17;;;;;;;218.95;209.57;;;21.80;98.10;;;;;;5081048;28;20067;-71
2023/08/09 09:50:46;;;;;;;232.88;222.95;;;22.00;97.60;;;;;;5081643;28;20047;-71
2023/08/09 09:53:13;;;;;;;220.70;211.48;;;21.70;96.60;;;;;;5086743;28;20124;-72
2023/08/09 09:55:40;;;;;;;213.93;204.90;;;21.30;96.10;;;;;;5078271;28;20393;-72
2023/08/09 09:58:06;;;;;;;223.98;214.30;;;21.00;97.90;;;;;;5083318;28;20127;-72
2023/08/09 10:00:33;;;;;;;290.27;277.33;;;21.20;98.20;;;;;;5082337;28;20929;-71
2023/08/09 10:03:04;;;;;;;204.57;196.05;;;21.50;98.40;;;;;;5063736;28;20082;-72
2023/08/09 10:05:35;;;;;;;218.40;209.18;;;21.40;97.50;;;;;;5087064;28;20113;-72
2023/08/09 10:08:04;;;;;;;295.75;282.65;;;21.10;97.10;;;;;;5086354;28;20044;-72
2023/08/09 10:10:32;;;;;;;225.52;215.75;;;20.80;98.80;;;;;;5081396;28;20040;-72
2023/08/09 10:13:03;;;;;;;262.77;251.35;;;20.80;98.40;;;;;;5101605;28;20442;-72
2023/08/09 10:15:38;;;;;;;240.95;230.63;;;20.70;98.40;;;;;;5086700;28;20115;-72
2023/08/09 10:18:40;;;;;;;226.55;217.00;;;20.60;98.40;;;;;;5083949;28;20123;-72
2023/08/09 10:21:08;;;;;;;393.58;374.40;;;20.40;98.80;;;;;;5090068;28;20487;-72
2023/08/09 10:23:33;;;;;;;283.80;271.42;;;20.60;99.80;;;;;;5078725;28;20044;-72
2023/08/09 10:25:59;;;;;;;190.88;182.80;;;21.00;99.90;;;;;;5084297;28;20316;-72
2023/08/09 10:28:47;;;;;;;234.80;224.93;;;21.20;97.90;;;;;;5086236;28;20036;-72
2023/08/09 10:31:13;;;;;;;237.38;227.02;;;20.90;97.20;;;;;;5093339;28;20039;-71
2023/08/09 10:34:07;;;;;;;318.67;304.23;;;20.50;97.70;;;;;;5083332;28;20036;-72
2023/08/09 10:36:34;;;;;;;287.73;275.08;;;20.20;98.70;;;;;;5066441;28;20130;-71
2023/08/09 10:39:09;;;;;;;282.60;270.30;;;20.00;98.60;;;;;;5064637;28;20090;-72
2023/08/09 10:41:35;;;;;;;324.92;310.30;;;19.90;98.80;;;;;;5092676;28;20044;-71
2023/08/09 10:44:03;;;;;;;324.52;309.80;;;20.20;99.60;;;;;;5083575;28;20058;-71
2023/08/09 10:46:33;;;;;;;283.80;271.50;;;20.50;99.40;;;;;;5079906;28;20090;-71
2023/08/09 10:49:00;;;;;;;297.70;284.38;;;20.60;98.60;;;;;;5083035;28;20040;-72
2023/08/09 10:51:26;;;;;;;305.77;292.27;;;20.70;98.50;;;;;;5090514;28;20040;-71
2023/08/09 10:54:04;;;;;;;307.08;293.00;;;21.10;98.80;;;;;;5082824;28;20084;-71
2023/08/09 10:56:42;;;;;;;283.20;270.88;;;21.60;99.60;;;;;;5078456;28;20043;-71
2023/08/09 10:59:14;;;;;;;223.23;213.57;;;22.10;98.50;;;;;;5082122;28;20136;-71
2023/08/09 11:01:41;;;;;;;255.25;244.20;;;22.30;97.10;;;;;;5071389;28;20117;-72
2023/08/09 11:04:14;;;;;;;225.02;215.43;;;22.10;97.20;;;;;;5053843;28;20055;-71
2023/08/09 11:06:45;;;;;;;265.73;254.07;;;21.80;97.50;;;;;;5076847;28;20044;-71
2023/08/09 11:09:12;;;;;;;271.17;259.33;;;21.80;98.00;;;;;;5080918;28;20090;-71
2023/08/09 11:11:40;;;;;;;233.35;223.48;;;21.70;97.50;;;;;;5083019;28;20054;-72
2023/08/09 11:14:08;;;;;;;322.05;307.27;;;21.40;97.70;;;;;;5074076;28;20032;-72
2023/08/09 11:16:34;;;;;;;268.85;257.35;;;21.50;99.20;;;;;;5079434;28;20044;-71
2023/08/09 11:18:59;;;;;;;274.73;262.40;;;21.70;97.70;;;;;;5075687;28;20075;-71
2023/08/09 11:21:26;;;;;;;282.83;270.33;;;21.70;98.90;;;;;;5056036;28;20123;-72
2023/08/09 11:23:58;;;;;;;311.88;297.83;;;21.70;98.10;;;;;;5078554;28;20122;-72
2023/08/09 11:26:25;;;;;;;291.05;278.30;;;21.70;97.50;;;;;;5079266;28;20040;-72
2023/08/09 11:28:51;;;;;;;298.30;285.10;;;21.40;97.70;;;;;;5083692;28;20381;-71
2023/08/09 11:31:16;;;;;;;309.05;295.17;;;21.20;97.80;;;;;;5079074;28;20039;-72
2023/08/09 11:33:42;;;;;;;281.42;269.05;;;21.10;98.50;;;;;;5100471;28;20101;-71
2023/08/09 11:36:09;;;;;;;278.08;265.83;;;21.00;98.30;;;;;;5086282;28;20115;-71
2023/08/09 11:38:34;;;;;;;325.83;310.58;;;20.90;97.90;;;;;;5082169;28;20483;-72
2023/08/09 11:41:00;;;;;;;276.35;264.20;;;20.90;97.80;;;;;;5079760;28;20044;-71
2023/08/09 11:43:25;;;;;;;278.13;265.75;;;20.70;97.50;;;;;;5061312;28;20078;-72
2023/08/09 11:45:53;;;;;;;259.88;248.63;;;20.60;98.60;;;;;;5091059;28;20127;-71
2023/08/09 11:48:38;;;;;;;279.85;267.23;;;20.50;98.80;;;;;;5068454;28;20109;-71
2023/08/09 11:51:14;;;;;;;267.27;255.68;;;20.50;98.10;;;;;;5068274;28;20534;-71
2023/08/09 11:53:41;;;;;;;267.80;255.68;;;20.20;98.20;;;;;;5098548;28;20048;-71
2023/08/09 11:56:12;;;;;;;231.85;221.65;;;20.20;99.00;;;;;;5087365;28;20048;-71
2023/08/09 11:58:39;;;;;;;114.45;109.40;;;20.50;99.80;;;;;;5061298;28;20049;-71
2023/08/09 12:01:21;;;;;;;78.50;74.72;;;21.10;99.90;;;;;;5086667;28;20087;-71
2023/08/09 12:03:51;;;;;;;218.30;208.05;;;21.40;99.40;;;;;;5085050;28;20096;-72